createdAt,value
2023-05-17T00:01:51.523Z,2.77
2023-05-17T00:04:19.859Z,1.57
2023-05-17T00:06:48.176Z,2.40
2023-05-17T00:09:16.536Z,2.20
2023-05-17T00:11:44.819Z,1.80
2023-05-17T00:14:13.694Z,2.10
2023-05-17T00:16:43.625Z,2.27
2023-05-17T00:19:12.143Z,1.43
2023-05-17T00:21:40.652Z,1.70
2023-05-17T00:24:09.331Z,2.07
2023-05-17T00:26:37.812Z,2.53
2023-05-17T00:29:06.606Z,2.23
2023-05-17T00:31:34.877Z,2.30
2023-05-17T00:34:04.582Z,2.33
2023-05-17T00:36:32.936Z,2.70
2023-05-17T00:39:03.798Z,1.90
2023-05-17T00:41:32.343Z,2.43
2023-05-17T00:44:00.705Z,2.17
2023-05-17T00:46:29.044Z,2.13
2023-05-17T00:48:57.607Z,2.67
2023-05-17T00:51:27.397Z,2.40
2023-05-17T00:53:56.183Z,2.30
2023-05-17T00:56:25.558Z,2.40
2023-05-17T00:58:54.836Z,2.30
2023-05-17T01:01:24.248Z,2.27
2023-05-17T01:03:53.068Z,1.97
2023-05-17T01:06:21.536Z,2.33
2023-05-17T01:08:51.241Z,2.53
2023-05-17T01:11:30.990Z,2.43
2023-05-17T01:14:10.480Z,2.60
2023-05-17T01:16:45.136Z,2.90
2023-05-17T01:19:33.498Z,2.60
2023-05-17T01:22:15.450Z,2.53
2023-05-17T01:24:52.682Z,2.20
2023-05-17T01:27:23.056Z,3.00
2023-05-17T01:29:53.160Z,3.10
2023-05-17T01:32:21.862Z,2.70
2023-05-17T01:34:53.597Z,3.07
2023-05-17T01:37:21.972Z,2.77
2023-05-17T01:39:50.828Z,3.20
2023-05-17T01:42:25.609Z,2.80
2023-05-17T01:45:04.516Z,2.80
2023-05-17T01:47:41.433Z,3.27
2023-05-17T01:50:13.936Z,3.10
2023-05-17T01:52:51.253Z,3.57
2023-05-17T01:55:27.973Z,3.50
2023-05-17T01:57:58.742Z,2.27
2023-05-17T02:00:30.501Z,2.90
2023-05-17T02:02:59.260Z,3.10
2023-05-17T02:05:28.006Z,2.77
2023-05-17T02:07:56.652Z,2.80
2023-05-17T02:10:25.195Z,3.47
2023-05-17T02:12:53.514Z,2.40
2023-05-17T02:15:23.276Z,3.40
2023-05-17T02:17:52.142Z,3.37
2023-05-17T02:20:21.011Z,3.70
2023-05-17T02:22:49.437Z,3.30
2023-05-17T02:25:17.962Z,3.17
2023-05-17T02:27:46.315Z,3.00
2023-05-17T02:30:18.189Z,4.30
2023-05-17T02:32:48.182Z,3.53
2023-05-17T02:35:16.655Z,3.30
2023-05-17T02:37:45.173Z,3.47
2023-05-17T02:40:14.844Z,3.83
2023-05-17T02:42:43.135Z,3.00
2023-05-17T02:45:12.495Z,3.30
2023-05-17T02:47:40.976Z,4.17
2023-05-17T02:50:11.667Z,4.23
2023-05-17T02:52:40.317Z,4.50
2023-05-17T02:55:09.591Z,4.33
2023-05-17T02:57:37.969Z,3.80
2023-05-17T03:00:08.471Z,4.30
2023-05-17T03:02:37.071Z,4.90
2023-05-17T03:05:08.364Z,4.80
2023-05-17T03:07:40.610Z,4.60
2023-05-17T03:10:09.564Z,4.10
2023-05-17T03:12:42.986Z,4.57
2023-05-17T03:15:12.148Z,4.60
2023-05-17T03:17:40.847Z,4.53
2023-05-17T03:20:11.455Z,4.47
2023-05-17T03:22:41.136Z,4.57
2023-05-17T03:25:10.350Z,4.70
2023-05-17T03:27:39.089Z,4.87
2023-05-17T03:30:08.844Z,4.53
2023-05-17T03:32:40.417Z,5.00
2023-05-17T03:35:10.166Z,5.30
2023-05-17T03:37:42.871Z,4.83
2023-05-17T03:40:12.386Z,4.77
2023-05-17T03:42:41.432Z,5.00
2023-05-17T03:45:10.540Z,4.70
2023-05-17T03:47:39.081Z,4.97
2023-05-17T03:50:09.070Z,6.10
2023-05-17T03:52:38.520Z,4.60
2023-05-17T03:55:09.478Z,5.30
2023-05-17T03:57:38.032Z,4.93
2023-05-17T04:00:10.676Z,5.90
2023-05-17T04:02:43.000Z,5.90
2023-05-17T04:05:13.347Z,6.07
2023-05-17T04:07:44.196Z,4.90
2023-05-17T04:10:15.504Z,5.50
2023-05-17T04:12:43.930Z,5.27
2023-05-17T04:15:12.906Z,4.97
2023-05-17T04:17:43.244Z,6.23
2023-05-17T04:20:13.021Z,5.60
2023-05-17T04:22:42.433Z,6.80
2023-05-17T04:25:13.200Z,6.17
2023-05-17T04:27:43.276Z,6.20
2023-05-17T04:30:12.728Z,6.43
2023-05-17T04:32:43.239Z,6.53
2023-05-17T04:35:11.796Z,5.97
2023-05-17T04:37:41.255Z,6.90
2023-05-17T04:40:20.120Z,6.33
2023-05-17T04:42:50.417Z,6.87
2023-05-17T04:45:19.795Z,6.40
2023-05-17T04:47:48.338Z,7.30
2023-05-17T04:50:16.958Z,6.60
2023-05-17T04:52:45.628Z,6.10
2023-05-17T04:55:14.662Z,6.47
2023-05-17T04:57:45.391Z,8.00
2023-05-17T05:00:18.796Z,7.63
2023-05-17T05:02:53.058Z,6.83
2023-05-17T05:05:21.658Z,6.90
2023-05-17T05:07:50.103Z,6.63
2023-05-17T05:10:19.259Z,6.13
2023-05-17T05:12:48.690Z,6.37
2023-05-17T05:15:19.225Z,8.07
2023-05-17T05:17:54.153Z,7.20
2023-05-17T05:20:22.731Z,6.90
2023-05-17T05:22:51.287Z,5.87
2023-05-17T05:25:21.685Z,6.20
2023-05-17T05:27:50.416Z,6.07
2023-05-17T05:30:22.924Z,6.00
2023-05-17T05:32:54.685Z,6.17
2023-05-17T05:35:29.398Z,6.00
2023-05-17T05:37:59.521Z,6.83
2023-05-17T05:40:28.576Z,5.93
2023-05-17T05:42:57.429Z,7.00
2023-05-17T05:45:27.341Z,7.10
2023-05-17T05:47:59.593Z,6.10
2023-05-17T05:50:28.360Z,8.00
2023-05-17T05:53:10.965Z,7.70
2023-05-17T05:55:50.637Z,6.97
2023-05-17T05:58:20.276Z,6.87
2023-05-17T06:00:50.847Z,5.30
2023-05-17T06:03:19.233Z,6.90
2023-05-17T06:05:47.645Z,7.00
2023-05-17T06:08:16.143Z,7.10
2023-05-17T06:10:44.551Z,7.90
2023-05-17T06:13:12.932Z,5.30
2023-05-17T06:15:42.129Z,7.70
2023-05-17T06:18:11.864Z,6.40
2023-05-17T06:20:40.306Z,6.30
2023-05-17T06:23:08.789Z,5.50
2023-05-17T06:25:37.231Z,6.17
2023-05-17T06:28:05.834Z,6.93
2023-05-17T06:30:34.205Z,6.63
2023-05-17T06:33:02.698Z,6.07
2023-05-17T06:35:43.767Z,6.30
2023-05-17T06:38:16.132Z,5.77
2023-05-17T06:40:44.537Z,6.13
2023-05-17T06:43:12.878Z,5.10
2023-05-17T06:45:41.300Z,5.03
2023-05-17T06:48:09.835Z,5.17
2023-05-17T06:50:39.714Z,4.50
2023-05-17T06:53:08.872Z,3.80
2023-05-17T06:55:37.570Z,3.27
2023-05-17T06:58:06.131Z,3.30
2023-05-17T07:00:34.626Z,3.63
2023-05-17T07:03:03.185Z,4.10
2023-05-17T07:05:31.821Z,3.40
2023-05-17T07:08:01.954Z,3.03
2023-05-17T07:10:30.335Z,3.80
2023-05-17T07:12:58.723Z,2.63
2023-05-17T07:15:27.369Z,3.30
2023-05-17T07:17:56.115Z,3.10
2023-05-17T07:20:24.957Z,2.70
2023-05-17T07:22:53.352Z,3.10
2023-05-17T07:25:23.145Z,2.80
2023-05-17T07:27:51.528Z,3.00
2023-05-17T07:30:20.001Z,3.70
2023-05-17T07:32:48.391Z,3.60
2023-05-17T07:35:18.244Z,3.00
2023-05-17T07:37:48.119Z,2.90
2023-05-17T07:40:16.866Z,2.80
2023-05-17T07:42:46.788Z,2.80
2023-05-17T07:45:15.467Z,2.40
2023-05-17T07:47:44.042Z,3.10
2023-05-17T07:50:13.157Z,2.27
2023-05-17T07:52:41.774Z,2.30
2023-05-17T07:55:11.425Z,2.83
2023-05-17T07:57:39.927Z,2.70
2023-05-17T08:00:12.778Z,2.10
2023-05-17T08:02:41.618Z,2.50
2023-05-17T08:05:10.985Z,2.07
2023-05-17T08:07:39.533Z,2.60
2023-05-17T08:10:09.267Z,1.97
2023-05-17T08:12:37.694Z,3.13
2023-05-17T08:15:06.906Z,2.13
2023-05-17T08:17:36.813Z,2.80
2023-05-17T08:20:08.037Z,2.73
2023-05-17T08:22:36.727Z,2.53
2023-05-17T08:25:05.226Z,2.30
2023-05-17T08:27:33.587Z,3.23
2023-05-17T08:30:02.500Z,2.10
2023-05-17T08:32:31.190Z,2.60
2023-05-17T08:35:01.617Z,2.70
2023-05-17T08:37:30.292Z,2.50
2023-05-17T08:39:58.741Z,2.47
2023-05-17T08:42:27.586Z,2.37
2023-05-17T08:44:56.927Z,2.70
2023-05-17T08:47:29.995Z,2.77
2023-05-17T08:50:00.577Z,2.40
2023-05-17T08:52:32.382Z,2.37
2023-05-17T08:55:02.603Z,1.97
2023-05-17T08:57:34.209Z,2.17
2023-05-17T09:00:04.301Z,2.83
2023-05-17T09:02:33.255Z,2.63
2023-05-17T09:05:03.740Z,2.50
2023-05-17T09:07:32.326Z,2.90
2023-05-17T09:10:00.949Z,2.50
2023-05-17T09:12:29.873Z,2.13
2023-05-17T09:15:14.100Z,2.07
2023-05-17T09:17:51.969Z,2.47
2023-05-17T09:20:25.776Z,2.97
2023-05-17T09:22:54.290Z,1.53
2023-05-17T09:25:25.128Z,2.27
2023-05-17T09:27:54.405Z,2.60
2023-05-17T09:30:29.610Z,2.23
2023-05-17T09:32:58.960Z,2.53
2023-05-17T09:35:32.742Z,3.70
2023-05-17T09:38:08.673Z,3.23
2023-05-17T09:40:40.477Z,2.40
2023-05-17T09:43:09.364Z,2.00
2023-05-17T09:45:38.860Z,2.50
2023-05-17T09:48:14.916Z,2.23
2023-05-17T09:50:49.434Z,1.90
2023-05-17T09:53:28.077Z,1.90
2023-05-17T09:55:58.668Z,1.70
2023-05-17T09:58:28.841Z,2.00
2023-05-17T10:01:01.866Z,2.40
2023-05-17T10:03:33.593Z,2.63
2023-05-17T10:06:06.864Z,2.27
2023-05-17T10:08:35.935Z,1.77
2023-05-17T10:11:08.974Z,2.50
2023-05-17T10:13:45.310Z,2.60
2023-05-17T10:16:14.220Z,2.23
2023-05-17T10:18:42.995Z,2.33
2023-05-17T10:21:13.021Z,2.53
2023-05-17T10:23:44.509Z,2.40
2023-05-17T10:26:16.021Z,3.73
2023-05-17T10:28:46.272Z,2.03
2023-05-17T10:31:14.788Z,3.07
2023-05-17T10:33:46.257Z,2.20
2023-05-17T10:36:18.831Z,2.67
2023-05-17T10:38:47.400Z,3.30
2023-05-17T10:41:17.955Z,2.10
2023-05-17T10:43:47.706Z,2.63
2023-05-17T10:46:18.012Z,2.27
2023-05-17T10:48:49.049Z,2.53
2023-05-17T10:51:24.589Z,2.03
2023-05-17T10:54:12.173Z,1.73
2023-05-17T10:56:42.673Z,1.83
2023-05-17T10:59:23.030Z,2.00
2023-05-17T11:02:01.368Z,2.10
2023-05-17T11:04:35.061Z,2.00
2023-05-17T11:07:27.108Z,2.07
2023-05-17T11:09:57.356Z,1.93
2023-05-17T11:12:38.375Z,2.30
2023-05-17T11:15:11.040Z,1.80
2023-05-17T11:17:51.715Z,1.70
2023-05-17T11:20:35.361Z,2.27
2023-05-17T11:23:07.934Z,1.90
2023-05-17T11:25:38.934Z,2.13
2023-05-17T11:28:18.468Z,2.73
2023-05-17T11:30:51.770Z,2.23
2023-05-17T11:33:32.949Z,2.10
2023-05-17T11:36:08.055Z,2.20
2023-05-17T11:38:38.565Z,2.20
2023-05-17T11:41:26.939Z,1.87
2023-05-17T11:43:56.315Z,2.30
2023-05-17T11:46:25.630Z,3.03
2023-05-17T11:48:54.793Z,2.30
2023-05-17T11:51:25.122Z,1.80
2023-05-17T11:53:56.703Z,2.13
2023-05-17T11:56:35.637Z,2.10
2023-05-17T11:59:10.894Z,2.17
2023-05-17T12:01:46.892Z,1.60
2023-05-17T12:04:15.622Z,1.53
2023-05-17T12:06:46.052Z,2.20
2023-05-17T12:09:18.567Z,1.93
2023-05-17T12:11:47.882Z,1.37
2023-05-17T12:14:20.436Z,1.87
2023-05-17T12:16:52.667Z,1.50
2023-05-17T12:19:23.442Z,1.73
2023-05-17T12:21:52.425Z,2.00
2023-05-17T12:24:22.285Z,3.00
2023-05-17T12:26:50.633Z,1.87
2023-05-17T12:29:23.191Z,1.90
2023-05-17T12:31:53.989Z,1.73
2023-05-17T12:34:23.089Z,1.97
2023-05-17T12:36:52.736Z,1.77
2023-05-17T12:39:24.738Z,1.53
2023-05-17T12:41:53.720Z,1.50
2023-05-17T12:44:22.317Z,2.17
2023-05-17T12:46:54.000Z,2.10
2023-05-17T12:49:23.376Z,1.53
2023-05-17T12:51:52.120Z,1.60
2023-05-17T12:54:31.528Z,1.80
2023-05-17T12:57:00.097Z,2.13
2023-05-17T12:59:29.352Z,1.60
2023-05-17T13:02:00.652Z,1.87
2023-05-17T13:04:33.696Z,1.67
2023-05-17T13:07:04.300Z,2.03
2023-05-17T13:09:36.510Z,2.20
2023-05-17T13:12:07.929Z,2.20
2023-05-17T13:14:43.445Z,1.70
2023-05-17T13:17:18.342Z,1.30
2023-05-17T13:19:47.027Z,1.77
2023-05-17T13:22:16.189Z,1.60
2023-05-17T13:24:46.406Z,1.50
2023-05-17T13:27:14.779Z,1.90
2023-05-17T13:29:44.466Z,1.83
2023-05-17T13:32:14.456Z,2.33
2023-05-17T13:34:43.120Z,1.70
2023-05-17T13:37:12.796Z,1.50
2023-05-17T13:39:42.126Z,2.40
2023-05-17T13:42:13.100Z,1.50
2023-05-17T13:44:41.938Z,1.80
2023-05-17T13:47:10.270Z,1.90
2023-05-17T13:49:38.735Z,2.00
2023-05-17T13:52:08.941Z,2.10
2023-05-17T13:54:37.939Z,1.40
2023-05-17T13:57:07.244Z,1.97
2023-05-17T13:59:36.990Z,1.83
2023-05-17T14:02:05.467Z,1.57
2023-05-17T14:04:35.114Z,2.73
2023-05-17T14:07:04.103Z,1.90
2023-05-17T14:09:34.335Z,2.20
2023-05-17T14:12:03.388Z,2.20
2023-05-17T14:14:32.062Z,2.07
2023-05-17T14:17:02.483Z,1.70
2023-05-17T14:19:31.094Z,1.97
2023-05-17T14:21:59.579Z,1.93
2023-05-17T14:24:28.167Z,2.00
2023-05-17T14:26:57.921Z,2.20
2023-05-17T14:29:26.599Z,2.53
2023-05-17T14:31:54.994Z,3.30
2023-05-17T14:34:24.958Z,2.33
2023-05-17T14:36:53.499Z,2.67
2023-05-17T14:39:21.999Z,2.27
2023-05-17T14:41:50.411Z,2.20
2023-05-17T14:44:18.847Z,2.50
2023-05-17T14:46:47.208Z,1.50
2023-05-17T14:49:15.901Z,1.40
2023-05-17T14:51:45.951Z,2.20
2023-05-17T14:54:14.454Z,2.40
2023-05-17T14:56:43.412Z,1.87
2023-05-17T14:59:12.568Z,2.17
2023-05-17T15:01:41.285Z,1.90
2023-05-17T15:04:10.434Z,1.90
2023-05-17T15:06:39.183Z,1.57
2023-05-17T15:09:12.783Z,2.13
2023-05-17T15:11:42.081Z,2.40
2023-05-17T15:14:10.492Z,1.70
2023-05-17T15:16:39.541Z,1.73
2023-05-17T15:19:08.152Z,1.70
2023-05-17T15:21:36.802Z,2.00
2023-05-17T15:24:05.913Z,2.00
2023-05-17T15:26:35.984Z,2.17
2023-05-17T15:29:04.422Z,1.57
2023-05-17T15:31:32.978Z,2.07
2023-05-17T15:34:01.600Z,1.70
2023-05-17T15:36:30.065Z,2.20
2023-05-17T15:38:58.568Z,1.90
2023-05-17T15:41:29.700Z,2.27
2023-05-17T15:44:00.087Z,2.10
2023-05-17T15:46:28.431Z,3.07
2023-05-17T15:48:58.105Z,2.03
2023-05-17T15:51:26.767Z,2.03
2023-05-17T15:53:55.197Z,2.00
2023-05-17T15:56:23.737Z,2.27
2023-05-17T15:58:52.691Z,2.57
2023-05-17T16:01:22.380Z,2.30
2023-05-17T16:03:50.806Z,1.83
2023-05-17T16:06:19.795Z,1.80
2023-05-17T16:08:48.142Z,2.00
2023-05-17T16:11:17.143Z,1.93
2023-05-17T16:13:45.526Z,2.53
2023-05-17T16:16:14.620Z,1.90
2023-05-17T16:18:44.508Z,2.43
2023-05-17T16:21:13.607Z,1.90
2023-05-17T16:23:42.278Z,2.40
2023-05-17T16:26:10.841Z,2.77
2023-05-17T16:28:39.222Z,2.47
2023-05-17T16:31:07.845Z,2.33
2023-05-17T16:33:36.795Z,2.93
2023-05-17T16:36:07.236Z,2.10
2023-05-17T16:38:36.556Z,2.50
2023-05-17T16:41:04.989Z,1.97
2023-05-17T16:43:33.421Z,2.17
2023-05-17T16:46:02.017Z,3.77
2023-05-17T16:48:30.407Z,3.40
2023-05-17T16:50:59.579Z,3.27
2023-05-17T16:53:29.517Z,3.23
2023-05-17T16:55:57.909Z,2.77
2023-05-17T16:58:27.071Z,2.50
2023-05-17T17:00:55.786Z,2.33
2023-05-17T17:03:24.311Z,2.37
2023-05-17T17:05:52.812Z,2.53
2023-05-17T17:08:21.282Z,3.83
2023-05-17T17:10:51.236Z,2.67
2023-05-17T17:13:19.853Z,2.40
2023-05-17T17:15:48.944Z,2.10
2023-05-17T17:18:17.635Z,2.50
2023-05-17T17:20:46.438Z,2.10
2023-05-17T17:23:14.959Z,2.10
2023-05-17T17:25:43.363Z,2.47
2023-05-17T17:28:13.574Z,2.30
2023-05-17T17:30:42.136Z,2.37
2023-05-17T17:33:10.624Z,2.20
2023-05-17T17:35:39.134Z,1.80
2023-05-17T17:38:07.641Z,2.60
2023-05-17T17:40:35.996Z,2.50
2023-05-17T17:43:04.424Z,1.77
2023-05-17T17:45:34.193Z,2.30
2023-05-17T17:48:02.637Z,2.33
2023-05-17T17:50:31.522Z,2.60
2023-05-17T17:53:00.721Z,1.80
2023-05-17T17:55:29.246Z,2.00
2023-05-17T17:57:58.022Z,2.47
2023-05-17T18:00:26.561Z,3.07
2023-05-17T18:02:56.983Z,2.37
2023-05-17T18:05:26.233Z,1.83
2023-05-17T18:07:54.801Z,2.50
2023-05-17T18:10:23.180Z,2.40
2023-05-17T18:12:51.973Z,2.43
2023-05-17T18:15:20.433Z,2.90
2023-05-17T18:17:51.394Z,3.00
2023-05-17T18:20:22.281Z,2.80
2023-05-17T18:22:50.778Z,3.20
2023-05-17T18:25:19.118Z,2.87
2023-05-17T18:27:47.495Z,2.87
2023-05-17T18:30:15.997Z,2.10
2023-05-17T18:32:44.786Z,2.83
2023-05-17T18:35:13.350Z,2.40
2023-05-17T18:37:43.004Z,2.07
2023-05-17T18:40:12.457Z,2.77
2023-05-17T18:42:40.813Z,2.50
2023-05-17T18:45:10.102Z,2.10
2023-05-17T18:47:38.680Z,2.20
2023-05-17T18:50:08.025Z,2.50
2023-05-17T18:52:36.390Z,2.30
2023-05-17T18:55:06.984Z,2.20
2023-05-17T18:57:35.495Z,2.40
2023-05-17T19:00:04.109Z,2.13
2023-05-17T19:02:32.550Z,2.53
2023-05-17T19:05:01.240Z,2.57
2023-05-17T19:07:29.629Z,2.50
2023-05-17T19:09:58.067Z,2.80
2023-05-17T19:12:28.091Z,7.57
2023-05-17T19:14:56.600Z,53.90
2023-05-17T19:17:25.190Z,119.33
2023-05-17T19:19:53.757Z,80.03
2023-05-17T19:22:22.195Z,30.73
2023-05-17T19:24:51.324Z,13.83
2023-05-17T19:27:20.570Z,9.23
2023-05-17T19:29:50.420Z,5.83
2023-05-17T19:32:20.121Z,3.90
2023-05-17T19:34:48.508Z,3.10
2023-05-17T19:37:17.084Z,2.70
2023-05-17T19:39:45.570Z,2.93
2023-05-17T19:42:14.033Z,3.20
2023-05-17T19:44:42.666Z,2.73
2023-05-17T19:47:12.995Z,3.10
2023-05-17T19:49:41.394Z,2.57
2023-05-17T19:52:09.709Z,4.17
2023-05-17T19:54:39.245Z,4.43
2023-05-17T19:57:08.024Z,3.40
2023-05-17T19:59:36.426Z,4.30
2023-05-17T20:02:05.031Z,4.23
2023-05-17T20:04:34.852Z,3.23
2023-05-17T20:07:03.435Z,4.00
2023-05-17T20:09:32.246Z,3.63
2023-05-17T20:12:00.721Z,3.43
2023-05-17T20:14:29.232Z,3.00
2023-05-17T20:16:57.760Z,2.70
2023-05-17T20:19:26.543Z,2.90
2023-05-17T20:21:56.489Z,3.00
2023-05-17T20:24:28.918Z,2.87
2023-05-17T20:26:58.472Z,2.40
2023-05-17T20:29:26.882Z,3.03
2023-05-17T20:31:55.357Z,3.17
2023-05-17T20:34:28.228Z,3.30
2023-05-17T20:36:58.344Z,3.90
2023-05-17T20:39:28.089Z,3.30
2023-05-17T20:41:56.973Z,3.27
2023-05-17T20:44:25.871Z,2.90
2023-05-17T20:46:55.696Z,3.23
2023-05-17T20:49:24.220Z,2.50
2023-05-17T20:51:52.679Z,3.10
2023-05-17T20:54:24.304Z,2.70
2023-05-17T20:56:52.658Z,2.40
2023-05-17T20:59:23.319Z,3.40
2023-05-17T21:01:52.154Z,3.80
2023-05-17T21:04:20.576Z,3.07
2023-05-17T21:06:48.933Z,3.80
2023-05-17T21:09:18.955Z,4.50
2023-05-17T21:11:48.792Z,4.03
2023-05-17T21:14:17.267Z,2.70
2023-05-17T21:16:45.574Z,4.07
2023-05-17T21:19:14.623Z,2.93
2023-05-17T21:21:43.057Z,2.73
2023-05-17T21:24:11.362Z,2.90
2023-05-17T21:26:41.120Z,2.90
2023-05-17T21:29:11.181Z,2.13
2023-05-17T21:31:39.557Z,2.67
2023-05-17T21:34:07.897Z,2.40
2023-05-17T21:36:36.368Z,2.80
2023-05-17T21:39:04.818Z,2.80
2023-05-17T21:41:33.188Z,2.57
2023-05-17T21:44:01.592Z,3.50
2023-05-17T21:46:31.666Z,2.30
2023-05-17T21:49:00.048Z,2.33
2023-05-17T21:51:28.423Z,2.57
2023-05-17T21:53:56.831Z,2.43
2023-05-17T21:56:25.872Z,2.93
2023-05-17T21:58:54.997Z,3.30
2023-05-17T22:01:24.337Z,2.80
2023-05-17T22:03:55.261Z,2.77
2023-05-17T22:06:23.739Z,2.67
2023-05-17T22:08:52.147Z,3.50
2023-05-17T22:11:22.802Z,3.20
2023-05-17T22:13:51.871Z,2.80
2023-05-17T22:16:22.468Z,2.60
2023-05-17T22:18:52.438Z,2.77
2023-05-17T22:21:22.672Z,2.57
2023-05-17T22:23:51.115Z,2.70
2023-05-17T22:26:19.938Z,2.97
2023-05-17T22:28:48.510Z,2.60
2023-05-17T22:31:18.481Z,2.40
2023-05-17T22:33:47.465Z,2.90
2023-05-17T22:36:17.872Z,3.03
2023-05-17T22:38:47.672Z,2.83
2023-05-17T22:41:16.065Z,2.43
2023-05-17T22:43:44.457Z,3.07
2023-05-17T22:46:12.878Z,3.10
2023-05-17T22:48:41.236Z,2.37
2023-05-17T22:51:09.657Z,2.90
2023-05-17T22:53:37.990Z,2.60
2023-05-17T22:56:09.445Z,2.63
2023-05-17T22:58:37.900Z,2.50
2023-05-17T23:01:06.456Z,3.10
2023-05-17T23:03:34.889Z,2.50
2023-05-17T23:06:03.462Z,2.93
2023-05-17T23:08:32.082Z,2.50
2023-05-17T23:11:01.805Z,2.80
2023-05-17T23:13:31.600Z,2.87
2023-05-17T23:16:00.051Z,2.30
2023-05-17T23:18:28.442Z,3.03
2023-05-17T23:20:56.790Z,2.10
2023-05-17T23:23:25.182Z,2.30
2023-05-17T23:25:56.545Z,2.40
2023-05-17T23:28:25.353Z,2.30
2023-05-17T23:30:55.111Z,2.70
2023-05-17T23:33:23.447Z,2.40
2023-05-17T23:35:53.522Z,3.13
2023-05-17T23:38:22.346Z,3.37
2023-05-17T23:40:50.826Z,2.20
2023-05-17T23:43:19.200Z,3.20
2023-05-17T23:45:47.789Z,2.87
2023-05-17T23:48:20.758Z,2.83
2023-05-17T23:50:49.172Z,2.60
2023-05-17T23:53:18.644Z,1.83
2023-05-17T23:55:47.269Z,2.30
2023-05-17T23:58:15.733Z,3.17
